Airfield :
LOGIN :

Register | Disclaimer

   EN    FR    IT 

 










Legend :    VFR   Marginal VFR   IFR   Intensive IFR   Very Intensive IFR
Visi :
Ceiling :
>= 8 km
>= 3000ft
5 to 8 km
1000 to 3000 ft
1500m to 5 km
500 to 1000 ft
800 to 1500m
200 to 500 ft
< 800m
< 200 ft
Symbols :   Thunderstorms  Fog  Heavy snow  Heavy precipitations  Wind > 20 kt
SIGMETs :     Misc.  Thunderstorms  Icing  Turbulence  Mountain Waves  Volcanic Ashes






- Airport Elevation : 23 ft
- IATA code : XFW


EDHI - Hamburg Finkenwerder

CURRENT METAR :
  • 270950Z 19012KT 9999 FEW020 SCT029 11/07 Q1004

EXPIRED METARs :
  • 270920Z 21011KT 9999 FEW019 BKN027 10/07 Q1004
  • 270850Z 20013KT 9999 FEW019 10/07 Q1004
  • 270820Z 20012KT CAVOK 10/07 Q1003
  • 270750Z 20012KT 9999 FEW024 09/06 Q1003
  • 270720Z 20010KT 9999 FEW023 09/06 Q1003

TAF TAF EDHI
Valid from the 27 at 09:00 until the 27 at 18:00 UTC


270800Z 2709/2718 20012KT 9999 SCT020
TEMPO 2710/2716 21015G25KT
PROB30
TEMPO 2713/2716 SHRA BKN020CB
BECMG 2715/2717 17007KT



MET'MAP, your aeronautical weather chart ! - Copyright ORBIFLY December 2007 - Disclaimer

ORBIFLY MET'MAP TEAM :

Programming & Development : Alexandra Zaïnal
Concept & original design : Baudouin d'Aumeries
Assistance for programming : Marc-Olivier Méhu
Technical & hardware support : Manuel Goepfert

Contact : metmap@orbifly.com




SOURCES & CREDITS :

   NOAA